Time;durP1;ratioP1;P1;durP2;ratioP2;P2;SDS_P1;SDS_P2;PMS_P1;PMS_P2;Temp;Humidity;BMP_temperature;BMP_pressure;BME280_temperature;BME280_humidity;BME280_pressure;Samples;Min_cycle;Max_cycle;Signal;HPM_P1;HPM_P2
2023/08/20 00:00:58;;;;;;;16.50;15.00;;;;;;;24.33;79.36;99208.69;136977;1267;22288;-84
2023/08/20 00:04:21;;;;;;;18.30;15.80;;;;;;;24.29;80.68;99212.59;136809;1276;22582;-85
2023/08/20 00:07:23;;;;;;;20.00;16.80;;;;;;;24.36;80.58;99207.67;136833;1276;22563;-85
2023/08/20 00:10:26;;;;;;;17.60;15.90;;;;;;;24.39;80.33;99206.16;136917;1277;22247;-85
2023/08/20 00:13:29;;;;;;;17.80;16.00;;;;;;;24.39;80.32;99204.92;136774;1277;216633;-85
2023/08/20 00:16:31;;;;;;;18.20;16.10;;;;;;;24.40;80.07;99202.73;136945;1277;22297;-85
2023/08/20 00:19:34;;;;;;;19.50;16.10;;;;;;;24.39;79.97;99198.30;136905;1277;22179;-85
2023/08/20 00:22:37;;;;;;;17.50;15.80;;;;;;;24.38;79.89;99199.41;137013;1277;22477;-83
2023/08/20 00:25:39;;;;;;;18.70;16.90;;;;;;;24.27;79.14;99199.30;136783;1277;22229;-85
2023/08/20 00:28:42;;;;;;;18.30;16.70;;;;;;;24.20;80.05;99196.17;136911;1277;22209;-86
2023/08/20 00:31:44;;;;;;;18.10;16.60;;;;;;;24.21;80.35;99192.03;136933;1277;22559;-86
2023/08/20 00:34:47;;;;;;;17.40;15.60;;;;;;;24.23;80.18;99185.55;137038;1277;22197;-85
2023/08/20 00:37:49;;;;;;;16.50;14.80;;;;;;;24.24;80.13;99180.02;137039;1277;22141;-85
2023/08/20 00:40:55;;;;;;;16.60;14.80;;;;;;;24.25;79.97;99178.70;137115;1277;22208;-85
2023/08/20 00:43:57;;;;;;;18.50;16.60;;;;;;;24.24;79.98;99175.19;136904;1277;22546;-85
2023/08/20 00:47:00;;;;;;;17.50;15.90;;;;;;;24.24;80.06;99171.98;136918;1276;22149;-85
2023/08/20 00:50:05;;;;;;;17.10;15.50;;;;;;;24.22;79.71;99170.30;137000;1277;22165;-86
2023/08/20 00:53:08;;;;;;;16.50;14.90;;;;;;;24.19;79.75;99169.52;136693;1277;22538;-86
2023/08/20 00:56:10;;;;;;;18.10;15.00;;;;;;;24.19;79.70;99171.67;136791;1277;22179;-86
2023/08/20 00:59:13;;;;;;;17.10;15.30;;;;;;;24.15;79.50;99177.14;137011;1276;22536;-84
2023/08/20 01:02:15;;;;;;;16.90;15.30;;;;;;;24.11;79.28;99177.44;136847;1277;22209;-86
2023/08/20 01:05:18;;;;;;;16.90;15.30;;;;;;;24.06;79.33;99181.73;136926;1277;22572;-86
2023/08/20 01:08:20;;;;;;;16.90;15.20;;;;;;;24.05;79.55;99177.13;136969;1277;22847;-86
2023/08/20 01:11:23;;;;;;;17.40;15.60;;;;;;;24.03;79.47;99178.65;136966;1277;22206;-86
2023/08/20 01:14:25;;;;;;;17.20;15.60;;;;;;;24.01;79.36;99184.78;137183;1276;22194;-86
2023/08/20 01:17:29;;;;;;;17.10;15.40;;;;;;;23.99;79.56;99182.70;137314;1276;22295;-86
2023/08/20 01:20:31;;;;;;;16.40;15.10;;;;;;;23.95;79.07;99180.58;137337;1276;22522;-86
2023/08/20 01:23:34;;;;;;;20.60;15.00;;;;;;;23.92;79.21;99181.55;137257;1276;22314;-85
2023/08/20 01:26:37;;;;;;;15.90;14.30;;;;;;;23.91;78.94;99186.55;137139;1276;22575;-85
2023/08/20 01:29:39;;;;;;;15.60;14.20;;;;;;;23.84;79.03;99187.52;137319;1276;22552;-84
2023/08/20 01:32:42;;;;;;;15.60;14.20;;;;;;;23.83;79.23;99191.27;137285;1276;22381;-85
2023/08/20 01:35:45;;;;;;;16.80;14.70;;;;;;;23.83;79.29;99191.15;137225;1276;22186;-85
2023/08/20 01:38:48;;;;;;;17.70;15.90;;;;;;;23.80;78.89;99195.34;137297;1276;22190;-86
2023/08/20 01:41:50;;;;;;;17.40;15.60;;;;;;;23.77;79.36;99193.29;137234;1276;22180;-85
2023/08/20 01:44:53;;;;;;;17.00;15.50;;;;;;;23.79;79.40;99192.89;137354;1276;22186;-86
2023/08/20 01:47:55;;;;;;;17.90;15.60;;;;;;;23.78;79.27;99188.11;137293;1276;22172;-86
2023/08/20 01:50:58;;;;;;;21.10;15.50;;;;;;;23.75;79.33;99185.52;137193;1276;22215;-86
2023/08/20 01:54:00;;;;;;;16.60;14.90;;;;;;;23.75;79.35;99187.88;137280;1276;22374;-86
2023/08/20 01:57:03;;;;;;;17.00;15.50;;;;;;;23.75;79.46;99193.73;137106;1276;22207;-86
2023/08/20 02:00:06;;;;;;;17.60;15.80;;;;;;;23.75;79.37;99190.54;137135;1276;23002;-84
2023/08/20 02:03:09;;;;;;;16.00;14.30;;;;;;;23.74;78.96;99195.37;137277;1276;22194;-85
2023/08/20 02:06:12;;;;;;;16.10;14.50;;;;;;;23.69;79.05;99192.55;137206;1276;22640;-85
2023/08/20 02:09:14;;;;;;;16.80;15.30;;;;;;;23.67;78.87;99193.15;137229;1276;24209;-86
2023/08/20 02:12:17;;;;;;;17.20;15.60;;;;;;;23.65;79.19;99194.09;137181;1276;22327;-85
2023/08/20 02:15:19;;;;;;;16.40;14.80;;;;;;;23.66;78.95;99194.60;137114;1276;22430;-85
2023/08/20 02:18:22;;;;;;;16.70;15.00;;;;;;;23.63;78.91;99194.33;137260;1276;22313;-85
2023/08/20 02:21:24;;;;;;;15.90;14.50;;;;;;;23.64;78.86;99196.46;137279;1276;22111;-85
2023/08/20 02:24:27;;;;;;;16.40;14.90;;;;;;;23.60;78.68;99196.23;137195;1276;22557;-85
2023/08/20 02:27:29;;;;;;;16.90;15.30;;;;;;;23.58;78.82;99194.36;136972;1276;22186;-86
2023/08/20 02:30:32;;;;;;;16.40;14.70;;;;;;;23.57;79.18;99192.08;137067;1276;22197;-85
2023/08/20 02:33:34;;;;;;;16.50;15.00;;;;;;;23.56;78.82;99190.50;137210;1276;22163;-85
2023/08/20 02:36:37;;;;;;;20.50;15.00;;;;;;;23.55;78.74;99191.96;137093;1276;24246;-85
2023/08/20 02:39:39;;;;;;;16.90;15.20;;;;;;;23.55;78.90;99191.61;137268;1276;22547;-86
2023/08/20 02:42:42;;;;;;;16.80;15.20;;;;;;;23.55;78.82;99191.61;136945;1276;22760;-85
2023/08/20 02:45:44;;;;;;;15.10;13.80;;;;;;;23.54;78.65;99188.43;137151;1276;22574;-84
2023/08/20 02:48:47;;;;;;;16.30;14.70;;;;;;;23.51;78.44;99191.34;137258;1276;22744;-84
2023/08/20 02:51:49;;;;;;;16.10;14.60;;;;;;;23.49;78.34;99193.73;137200;1276;22168;-84
2023/08/20 02:54:52;;;;;;;16.10;14.60;;;;;;;23.48;78.33;99194.50;137236;1276;22242;-84
2023/08/20 02:57:54;;;;;;;15.20;13.80;;;;;;;23.46;78.28;99195.10;137279;1276;22244;-84
2023/08/20 03:00:57;;;;;;;15.60;14.10;;;;;;;23.42;78.03;99192.02;137180;1276;22225;-84
2023/08/20 03:04:00;;;;;;;15.00;13.70;;;;;;;23.39;78.17;99193.87;137211;1276;22156;-86
2023/08/20 03:07:02;;;;;;;15.30;13.90;;;;;;;23.36;78.17;99198.95;137014;1268;22202;-84
2023/08/20 03:10:05;;;;;;;14.60;13.30;;;;;;;23.33;78.01;99203.67;136806;1276;22559;-83
2023/08/20 03:13:08;;;;;;;15.40;14.10;;;;;;;23.30;78.19;99206.81;136808;1276;22203;-85
2023/08/20 03:16:10;;;;;;;15.60;13.90;;;;;;;23.28;78.35;99207.22;136960;1276;22215;-85
2023/08/20 03:19:13;;;;;;;15.30;13.70;;;;;;;23.27;78.23;99206.89;136948;1276;22189;-86
2023/08/20 03:22:15;;;;;;;16.00;14.30;;;;;;;23.27;78.04;99206.34;136861;1276;22296;-86
2023/08/20 03:25:18;;;;;;;15.20;13.90;;;;;;;23.24;77.80;99206.48;136937;1276;22478;-84
2023/08/20 03:28:20;;;;;;;17.20;14.60;;;;;;;23.22;77.94;99215.07;136363;1270;22548;-83
2023/08/20 03:31:25;;;;;;;16.20;14.50;;;;;;;23.18;78.04;99211.98;136700;1276;22540;-83
2023/08/20 03:34:28;;;;;;;15.70;14.10;;;;;;;23.15;77.97;99210.67;136649;1276;22517;-83
2023/08/20 03:37:30;;;;;;;17.30;15.70;;;;;;;23.14;78.25;99217.98;137289;1265;22391;-86
2023/08/20 03:40:33;;;;;;;16.00;14.40;;;;;;;23.27;77.97;99217.19;137274;1272;22091;-87
2023/08/20 03:43:35;;;;;;;15.30;13.90;;;;;;;23.49;76.98;99213.98;137179;1276;22267;-86
2023/08/20 03:46:38;;;;;;;14.30;13.00;;;;;;;23.64;76.04;99210.47;137277;1276;22235;-85
2023/08/20 03:49:40;;;;;;;405.40;43.40;;;;;;;23.75;75.18;99213.62;137285;1276;22192;-87
2023/08/20 03:52:43;;;;;;;1244.00;144.70;;;;;;;23.84;74.66;99214.02;137147;1276;22305;-86
2023/08/20 03:55:45;;;;;;;835.40;95.40;;;;;;;23.87;73.69;99211.77;137231;1276;22606;-86
2023/08/20 03:58:48;;;;;;;582.30;64.20;;;;;;;23.85;73.02;99213.64;137197;1276;22569;-86
2023/08/20 04:01:50;;;;;;;367.10;43.40;;;;;;;23.82;73.26;99213.53;137090;1276;22784;-86
2023/08/20 04:04:53;;;;;;;325.90;39.20;;;;;;;23.89;73.15;99212.94;137243;1276;22487;-86
2023/08/20 04:07:55;;;;;;;216.20;30.80;;;;;;;23.98;72.70;99214.05;137167;1276;22193;-87
2023/08/20 04:10:58;;;;;;;214.90;30.60;;;;;;;24.05;72.29;99216.78;137198;1276;22231;-86
2023/08/20 04:14:00;;;;;;;156.50;24.40;;;;;;;24.11;71.79;99219.06;137228;1276;22174;-86
2023/08/20 04:17:03;;;;;;;118.40;23.60;;;;;;;24.15;71.46;99218.02;136424;1276;22541;-81
2023/08/20 04:20:08;;;;;;;104.80;20.50;;;;;;;24.19;71.16;99218.77;136411;1276;22643;-87
2023/08/20 04:23:10;;;;;;;61.60;17.10;;;;;;;24.23;70.88;99215.05;137132;1276;22643;-84
2023/08/20 04:26:13;;;;;;;29.50;13.90;;;;;;;24.10;70.39;99215.38;137173;1276;22182;-84
2023/08/20 04:29:18;;;;;;;48.00;16.30;;;;;;;23.85;70.90;99218.77;137194;1276;22534;-85
2023/08/20 04:32:21;;;;;;;40.80;14.60;;;;;;;23.67;71.23;99220.66;137235;1276;22275;-83
2023/08/20 04:35:25;;;;;;;27.90;14.10;;;;;;;23.58;71.85;99223.99;137114;1276;22194;-83
2023/08/20 04:38:28;;;;;;;17.40;12.80;;;;;;;23.58;72.28;99218.32;137217;1276;22226;-84
2023/08/20 04:41:30;;;;;;;55.10;17.70;;;;;;;23.61;72.54;99220.88;137148;1276;22220;-85
2023/08/20 04:44:33;;;;;;;30.70;14.00;;;;;;;23.60;72.31;99229.97;137080;1276;22184;-84
2023/08/20 04:47:35;;;;;;;41.90;16.40;;;;;;;23.59;72.92;99233.58;137245;1276;22286;-86
2023/08/20 04:50:38;;;;;;;28.80;14.70;;;;;;;23.79;73.15;99232.52;137113;1276;22633;-85
2023/08/20 04:53:40;;;;;;;28.50;14.80;;;;;;;24.00;72.97;99231.92;137066;1276;22243;-84
2023/08/20 04:56:43;;;;;;;22.90;14.30;;;;;;;24.16;72.37;99227.42;137184;1276;23239;-85
2023/08/20 04:59:46;;;;;;;14.30;12.40;;;;;;;24.29;72.16;99226.98;136495;1270;22554;-83
2023/08/20 05:02:48;;;;;;;13.40;12.30;;;;;;;24.45;72.40;99226.38;136154;1276;22546;-83
2023/08/20 05:05:52;;;;;;;14.60;11.70;;;;;;;24.68;72.43;99225.48;136277;1276;23594;-83
2023/08/20 05:08:55;;;;;;;13.00;11.80;;;;;;;24.71;71.20;99228.90;136482;1276;24153;-86
2023/08/20 05:11:57;;;;;;;12.20;11.10;;;;;;;24.14;70.48;99230.70;136638;1276;22244;-86
2023/08/20 05:15:00;;;;;;;13.10;12.00;;;;;;;23.59;71.93;99234.63;136632;1276;22213;-86
2023/08/20 05:18:05;;;;;;;13.10;12.10;;;;;;;23.23;73.45;99234.56;136642;1276;22670;-85
2023/08/20 05:21:08;;;;;;;12.80;11.50;;;;;;;23.02;74.56;99236.14;136594;1276;22219;-86
2023/08/20 05:24:13;;;;;;;12.20;11.20;;;;;;;22.88;75.92;99235.34;136673;1276;23125;-84
2023/08/20 05:27:17;;;;;;;12.80;11.60;;;;;;;22.78;77.50;99235.81;136592;1276;22533;-84
2023/08/20 05:30:20;;;;;;;13.60;12.20;;;;;;;22.78;78.74;99240.06;136323;1276;24304;-84
2023/08/20 05:33:27;;;;;;;14.60;13.30;;;;;;;22.85;79.56;99240.38;136543;1276;22567;-85
2023/08/20 05:36:33;;;;;;;14.40;12.80;;;;;;;22.93;80.21;99241.59;136304;1273;22620;-86
2023/08/20 05:39:36;;;;;;;14.20;13.10;;;;;;;23.02;81.07;99243.08;136865;1276;22549;-84
2023/08/20 05:42:39;;;;;;;15.80;14.40;;;;;;;23.17;82.09;99243.81;136608;1276;22471;-86
2023/08/20 05:45:42;;;;;;;18.60;16.90;;;;;;;23.32;82.85;99244.56;136791;1276;24158;-85
2023/08/20 05:48:45;;;;;;;25.70;19.50;;;;;;;23.48;83.17;99247.04;137331;1276;22292;-86
2023/08/20 05:51:49;;;;;;;17.60;15.80;;;;;;;23.70;82.64;99247.59;137278;1276;22048;-86
2023/08/20 05:55:01;;;;;;;21.90;19.50;;;;;;;23.86;82.39;99250.89;137313;1276;22084;-86
2023/08/20 05:58:07;;;;;;;24.30;21.00;;;;;;;24.14;82.99;99253.63;136848;1276;22536;-86
2023/08/20 06:01:14;;;;;;;21.40;18.70;;;;;;;24.41;82.53;99251.09;136884;1276;24251;-85
2023/08/20 06:04:19;;;;;;;22.70;20.30;;;;;;;24.60;81.10;99257.27;137433;1276;22083;-87
2023/08/20 06:07:26;;;;;;;22.40;20.10;;;;;;;24.71;80.24;99263.96;136876;1268;22468;-84
2023/08/20 06:10:31;;;;;;;21.70;19.40;;;;;;;24.79;79.92;99263.30;136483;1277;21754;-84
2023/08/20 06:13:33;;;;;;;21.80;19.00;;;;;;;24.91;79.09;99267.27;135977;1277;23314;-86
2023/08/20 06:16:36;;;;;;;22.10;19.80;;;;;;;25.02;78.92;99268.30;136540;1277;22547;-88
2023/08/20 06:19:39;;;;;;;21.70;19.50;;;;;;;25.12;78.36;99269.14;136328;1277;22519;-86
2023/08/20 06:22:43;;;;;;;24.80;21.90;;;;;;;25.26;78.32;99267.67;136338;1277;22576;-88
2023/08/20 06:25:46;;;;;;;21.90;19.90;;;;;;;25.43;78.08;99262.89;136616;1277;24206;-87
2023/08/20 06:28:49;;;;;;;21.40;19.30;;;;;;;25.69;77.73;99263.06;136763;1277;22585;-86
2023/08/20 06:31:51;;;;;;;26.10;19.70;;;;;;;25.88;77.00;99260.25;136516;1277;22531;-87
2023/08/20 06:34:54;;;;;;;22.90;20.60;;;;;;;26.01;76.42;99261.85;136175;1273;22545;-88
2023/08/20 06:38:00;;;;;;;20.60;18.70;;;;;;;26.15;76.08;99262.48;136602;1277;22159;-85
2023/08/20 06:41:03;;;;;;;19.50;17.20;;;;;;;26.28;75.41;99264.56;137007;1277;22227;-87
2023/08/20 06:44:05;;;;;;;18.80;17.10;;;;;;;26.44;74.59;99265.31;137165;1273;22221;-86
2023/08/20 06:47:08;;;;;;;20.00;18.10;;;;;;;26.58;73.74;99265.88;137020;1277;22155;-87
2023/08/20 06:50:10;;;;;;;20.20;17.90;;;;;;;26.73;73.17;99270.89;137150;1277;22804;-86
2023/08/20 06:53:13;;;;;;;19.80;18.00;;;;;;;27.03;72.58;99275.05;137012;1277;22161;-86
2023/08/20 06:56:18;;;;;;;18.80;17.00;;;;;;;27.29;71.24;99277.19;136646;1277;22701;-85
2023/08/20 06:59:20;;;;;;;18.00;16.30;;;;;;;27.39;70.50;99275.23;135880;1277;22553;-84
2023/08/20 07:02:23;;;;;;;19.10;17.30;;;;;;;27.49;70.08;99277.42;136582;1277;22540;-84
2023/08/20 07:05:25;;;;;;;17.40;15.60;;;;;;;27.61;69.85;99273.42;136677;1277;22577;-86
2023/08/20 07:08:38;;;;;;;17.40;15.80;;;;;;;27.75;68.98;99275.95;137042;1277;22607;-85
2023/08/20 07:11:41;;;;;;;17.10;15.40;;;;;;;27.66;67.63;99275.70;136962;1277;22232;-85
2023/08/20 07:14:43;;;;;;;20.70;13.60;;;;;;;27.57;67.43;99282.02;137015;1277;22250;-87
2023/08/20 07:17:46;;;;;;;15.00;13.50;;;;;;;27.63;66.79;99284.23;136916;1277;22167;-87
2023/08/20 07:20:48;;;;;;;13.40;12.30;;;;;;;27.74;66.62;99283.13;136914;1277;25810;-90
2023/08/20 07:23:51;;;;;;;14.40;13.10;;;;;;;27.79;64.70;99286.14;136603;1277;22161;-88
2023/08/20 07:26:58;;;;;;;12.50;11.50;;;;;;;27.89;65.05;99282.40;136482;1277;22544;-88
2023/08/20 07:30:03;;;;;;;12.30;11.30;;;;;;;28.04;63.34;99280.20;136513;1277;22230;-88
2023/08/20 07:33:06;;;;;;;13.20;12.00;;;;;;;28.08;62.95;99286.03;137045;1277;22474;-86
2023/08/20 07:36:08;;;;;;;13.10;12.00;;;;;;;28.12;62.10;99285.29;137082;1277;22459;-87
2023/08/20 07:39:11;;;;;;;13.40;12.10;;;;;;;28.13;62.53;99287.38;136868;1277;22195;-87
2023/08/20 07:42:13;;;;;;;13.00;11.90;;;;;;;28.26;62.93;99292.27;137083;1277;22192;-85
2023/08/20 07:45:16;;;;;;;14.30;13.00;;;;;;;28.45;63.29;99290.33;136866;1277;22254;-85
2023/08/20 07:48:18;;;;;;;14.50;12.60;;;;;;;28.68;62.13;99288.44;137010;1277;22258;-88
2023/08/20 07:51:21;;;;;;;12.90;11.10;;;;;;;28.74;62.13;99287.75;137009;1277;22208;-85
2023/08/20 07:54:23;;;;;;;13.20;12.00;;;;;;;29.00;62.39;99288.61;137208;1276;22307;-84
2023/08/20 07:57:26;;;;;;;13.30;12.00;;;;;;;29.26;61.73;99283.38;137299;1276;22201;-86
2023/08/20 08:00:28;;;;;;;13.30;10.90;;;;;;;29.43;60.18;99281.30;137245;1276;22495;-85
2023/08/20 08:03:31;;;;;;;11.50;10.50;;;;;;;29.49;59.95;99284.05;137351;1276;22329;-85
2023/08/20 08:06:33;;;;;;;12.30;11.20;;;;;;;29.69;59.62;99281.59;137310;1276;22173;-85
2023/08/20 08:09:36;;;;;;;12.60;11.60;;;;;;;29.79;59.06;99285.52;137231;1276;22620;-84
2023/08/20 08:12:38;;;;;;;12.50;11.20;;;;;;;29.89;58.96;99287.26;137321;1276;22186;-84
2023/08/20 08:15:41;;;;;;;12.30;11.20;;;;;;;30.03;58.70;99281.73;137263;1276;22168;-85
2023/08/20 08:18:43;;;;;;;11.50;10.50;;;;;;;30.16;58.40;99282.21;137303;1276;22173;-84
2023/08/20 08:21:46;;;;;;;12.80;11.60;;;;;;;30.24;57.71;99284.41;137205;1276;22177;-87
2023/08/20 08:24:48;;;;;;;12.50;11.50;;;;;;;30.24;57.48;99285.47;137342;1276;22165;-86
2023/08/20 08:27:51;;;;;;;23.90;11.50;;;;;;;30.29;57.15;99285.15;137072;1276;22062;-85
2023/08/20 08:30:53;;;;;;;13.10;10.90;;;;;;;30.38;57.24;99284.78;137269;1276;22185;-86
2023/08/20 08:33:56;;;;;;;12.30;11.10;;;;;;;30.48;56.72;99289.62;137237;1276;22199;-86
2023/08/20 08:36:58;;;;;;;12.80;10.30;;;;;;;30.51;56.24;99286.92;137241;1276;22185;-86
2023/08/20 08:40:05;;;;;;;11.40;10.50;;;;;;;30.63;55.84;99289.70;137301;1276;22420;-86
2023/08/20 08:43:07;;;;;;;11.90;10.70;;;;;;;30.64;55.57;99294.36;137228;1270;22529;-85
2023/08/20 08:46:10;;;;;;;10.10;9.30;;;;;;;30.71;55.36;99292.62;136901;1276;22528;-86
2023/08/20 08:49:15;;;;;;;11.80;10.00;;;;;;;30.75;54.23;99292.02;137000;1276;22210;-87
2023/08/20 08:52:17;;;;;;;11.90;10.20;;;;;;;30.82;54.77;99290.33;136772;1253;22570;-87
2023/08/20 08:55:20;;;;;;;10.30;9.30;;;;;;;30.84;53.81;99292.69;137030;1276;22163;-87
2023/08/20 08:58:23;;;;;;;10.00;9.10;;;;;;;30.96;53.73;99294.97;136916;1273;22542;-88
2023/08/20 09:01:28;;;;;;;10.10;9.10;;;;;;;31.07;53.21;99290.67;136851;1276;22962;-88
2023/08/20 09:04:31;;;;;;;10.70;9.40;;;;;;;31.28;53.41;99293.63;137042;1276;22541;-88
2023/08/20 09:07:33;;;;;;;10.60;9.60;;;;;;;31.51;52.26;99295.36;136866;1276;22590;-86
2023/08/20 09:10:36;;;;;;;10.50;9.60;;;;;;;31.54;52.40;99297.50;136907;1276;22649;-85
2023/08/20 09:13:38;;;;;;;10.60;9.30;;;;;;;31.63;52.33;99296.16;136821;1276;22581;-85
2023/08/20 09:16:43;;;;;;;10.20;9.40;;;;;;;31.74;50.99;99299.23;136670;1276;23792;-86
2023/08/20 09:19:46;;;;;;;10.50;9.50;;;;;;;31.62;50.96;99298.77;136646;1276;22565;-85
2023/08/20 09:22:49;;;;;;;10.40;8.80;;;;;;;31.56;49.98;99299.15;136696;1276;22925;-86
2023/08/20 09:25:53;;;;;;;10.00;9.10;;;;;;;31.50;50.18;99301.56;136826;1276;25314;-88
2023/08/20 09:28:59;;;;;;;10.60;9.50;;;;;;;31.38;50.50;99296.05;136937;1276;22216;-86
2023/08/20 09:32:02;;;;;;;10.30;9.30;;;;;;;31.54;50.72;99296.75;136862;1276;22536;-86
2023/08/20 09:35:04;;;;;;;11.10;10.10;;;;;;;31.83;49.89;99298.11;136953;1276;22558;-86
2023/08/20 09:38:07;;;;;;;9.50;8.70;;;;;;;31.96;49.81;99301.14;136969;1276;22214;-86
2023/08/20 09:41:10;;;;;;;10.80;8.40;;;;;;;32.08;48.25;99296.89;137182;1276;22576;-87
2023/08/20 09:44:12;;;;;;;10.20;9.30;;;;;;;32.23;47.96;99293.52;137009;1276;25894;-86
2023/08/20 09:47:15;;;;;;;11.50;9.90;;;;;;;32.40;47.79;99294.18;136690;1276;22552;-86
2023/08/20 09:50:17;;;;;;;11.00;10.10;;;;;;;32.19;48.37;99288.75;137126;1276;22545;-85
2023/08/20 09:53:20;;;;;;;14.50;10.30;;;;;;;32.10;48.63;99285.77;136726;1276;22521;-86
2023/08/20 09:56:23;;;;;;;;;;;;;;;32.19;47.41;99288.21;136696;1276;22508;-86
2023/08/20 09:59:26;;;;;;;9.90;9.20;;;;;;;32.13;47.47;99285.92;136837;1276;22217;-87
2023/08/20 10:02:28;;;;;;;10.50;9.30;;;;;;;32.28;47.07;99290.48;136640;1276;22523;-87
2023/08/20 10:05:31;;;;;;;9.40;8.70;;;;;;;32.46;47.33;99287.45;136607;1276;22557;-86
2023/08/20 10:08:34;;;;;;;;;;;;;;;32.78;46.98;99281.88;136878;1276;22535;-87
2023/08/20 10:11:39;;;;;;;10.40;9.30;;;;;;;32.98;46.32;99282.80;136722;1276;22993;-86
2023/08/20 10:14:42;;;;;;;11.80;9.10;;;;;;;33.40;45.98;99279.34;136742;1270;22967;-84
2023/08/20 10:17:45;;;;;;;10.00;9.00;;;;;;;33.82;44.84;99274.22;137122;1276;22606;-86
2023/08/20 10:20:48;;;;;;;10.20;9.10;;;;;;;34.01;44.25;99271.70;136888;1276;22714;-85
2023/08/20 10:23:50;;;;;;;10.90;8.90;;;;;;;34.26;44.28;99272.05;136900;1276;22650;-85
2023/08/20 10:26:53;;;;;;;;;;;;;;;34.19;42.91;99276.02;137277;1276;22529;-87
2023/08/20 10:29:56;;;;;;;10.50;9.30;;;;;;;33.77;43.42;99280.34;137028;1276;22288;-86
2023/08/20 10:32:59;;;;;;;;;;;;;;;33.31;44.71;99270.66;136922;1276;22631;-86
2023/08/20 10:36:02;;;;;;;10.10;9.20;;;;;;;32.89;45.13;99278.06;136669;1276;22704;-86
2023/08/20 10:39:04;;;;;;;11.10;10.00;;;;;;;32.76;44.86;99269.27;136963;1276;22549;-85
2023/08/20 10:42:09;;;;;;;;;;;;;;;33.08;44.62;99271.80;137083;1276;22971;-86
2023/08/20 10:45:12;;;;;;;10.50;9.70;;;;;;;33.26;44.38;99271.70;137257;1276;22205;-85
2023/08/20 10:48:14;;;;;;;;;;;;;;;33.42;44.17;99265.34;137130;1276;22531;-85
2023/08/20 10:51:17;;;;;;;11.30;10.00;;;;;;;33.48;44.00;99265.04;137267;1276;22393;-86
2023/08/20 10:54:19;;;;;;;;;;;;;;;33.49;44.13;99262.07;137046;1276;25403;-85
2023/08/20 10:57:24;;;;;;;9.90;9.00;;;;;;;33.57;43.95;99260.77;136788;1276;22584;-84
2023/08/20 11:00:28;;;;;;;9.40;8.60;;;;;;;33.72;43.81;99258.84;137051;1274;22138;-86
2023/08/20 11:03:33;;;;;;;11.60;8.90;;;;;;;33.93;43.26;99255.15;136737;1276;22211;-84
2023/08/20 11:06:36;;;;;;;9.90;9.10;;;;;;;34.22;42.66;99249.96;136760;1276;22113;-85
2023/08/20 11:09:39;;;;;;;9.70;8.90;;;;;;;34.49;42.08;99251.24;136766;1270;22794;-85
2023/08/20 11:12:42;;;;;;;9.30;8.60;;;;;;;34.59;41.70;99250.11;137206;1276;22545;-87
2023/08/20 11:15:45;;;;;;;10.00;9.10;;;;;;;34.55;41.91;99249.86;137211;1276;22243;-83
2023/08/20 11:18:48;;;;;;;9.90;9.00;;;;;;;34.65;41.36;99250.16;137283;1276;22438;-86
2023/08/20 11:21:51;;;;;;;9.50;8.70;;;;;;;34.60;41.05;99249.66;137014;1276;22296;-86
2023/08/20 11:24:53;;;;;;;9.70;8.70;;;;;;;34.37;40.65;99248.95;137145;1276;22643;-86
2023/08/20 11:27:58;;;;;;;10.00;9.10;;;;;;;33.97;40.93;99246.02;137056;1276;22281;-86
2023/08/20 11:31:01;;;;;;;9.50;8.60;;;;;;;34.16;40.07;99249.51;137061;1276;22141;-85
2023/08/20 11:34:04;;;;;;;;;;;;;;;33.71;39.98;99247.92;137260;1276;22493;-86
2023/08/20 11:37:06;;;;;;;8.90;8.10;;;;;;;33.07;40.68;99253.64;137104;1276;22190;-86
2023/08/20 11:40:09;;;;;;;;;;;;;;;32.81;41.25;99255.02;136753;1276;22556;-87
2023/08/20 11:43:12;;;;;;;8.10;7.50;;;;;;;32.93;41.89;99249.12;137220;1276;22157;-85
2023/08/20 11:46:15;;;;;;;8.10;7.40;;;;;;;33.20;40.97;99251.61;137305;1275;22351;-86
2023/08/20 11:49:18;;;;;;;;;;;;;;;33.34;40.78;99245.86;137300;1276;22895;-84
2023/08/20 11:52:23;;;;;;;9.90;7.90;;;;;;;33.59;40.12;99245.11;137263;1276;22562;-84
2023/08/20 11:55:25;;;;;;;7.90;7.10;;;;;;;33.74;40.10;99239.39;137173;1276;22540;-84
2023/08/20 11:58:28;;;;;;;;;;;;;;;33.91;40.49;99239.20;137274;1276;22565;-86
2023/08/20 12:01:31;;;;;;;8.20;7.60;;;;;;;34.03;40.58;99234.32;137039;1276;22196;-84
2023/08/20 12:04:33;;;;;;;;;;;;;;;34.12;40.25;99236.99;137334;1276;22493;-86
2023/08/20 12:07:36;;;;;;;7.50;6.90;;;;;;;34.04;39.42;99233.48;137070;1276;22452;-86
2023/08/20 12:10:39;;;;;;;8.40;7.70;;;;;;;33.82;39.49;99233.95;137310;1276;22122;-85
2023/08/20 12:13:41;;;;;;;;;;;;;;;33.54;40.00;99233.70;137065;1269;380456;-85
2023/08/20 12:16:44;;;;;;;8.80;7.40;;;;;;;33.11;41.40;99231.72;137282;1276;22003;-85
2023/08/20 12:19:46;;;;;;;8.00;7.30;;;;;;;33.03;41.30;99228.16;137296;1276;22373;-85
2023/08/20 12:22:49;;;;;;;8.00;7.20;;;;;;;33.01;41.51;99222.20;137263;1276;22606;-85
2023/08/20 12:25:51;;;;;;;7.10;6.60;;;;;;;33.09;40.22;99217.82;137282;1273;22223;-86
2023/08/20 12:28:54;;;;;;;;;;;;;;;33.22;40.06;99217.58;137316;1276;22557;-86
2023/08/20 12:31:57;;;;;;;7.70;6.90;;;;;;;33.40;39.94;99215.71;137154;1276;22225;-85
2023/08/20 12:35:00;;;;;;;7.10;6.20;;;;;;;33.42;39.35;99214.98;137202;1276;22568;-84
2023/08/20 12:38:02;;;;;;;6.60;6.10;;;;;;;33.50;38.88;99209.28;137352;1273;22216;-85
2023/08/20 12:41:05;;;;;;;;;;;;;;;33.58;39.02;99204.02;137263;1276;22496;-84
2023/08/20 12:44:08;;;;;;;;;;;;;;;33.60;38.86;99208.20;137232;1276;22880;-85
2023/08/20 12:47:10;;;;;;;6.60;6.10;;;;;;;33.55;38.66;99207.61;137171;1276;22865;-85
2023/08/20 12:50:14;;;;;;;7.00;6.40;;;;;;;33.49;37.88;99211.00;137256;1276;22403;-85
2023/08/20 12:53:16;;;;;;;6.70;6.20;;;;;;;33.12;37.42;99206.60;137170;1276;22561;-86
2023/08/20 12:56:19;;;;;;;6.80;6.20;;;;;;;32.88;37.85;99207.09;137136;1276;22528;-85
2023/08/20 12:59:22;;;;;;;6.50;6.00;;;;;;;32.78;38.58;99205.69;137276;1276;22257;-85
2023/08/20 13:02:24;;;;;;;6.70;6.00;;;;;;;32.96;38.63;99204.77;137355;1276;22247;-85
2023/08/20 13:05:27;;;;;;;7.20;6.30;;;;;;;33.13;39.20;99207.05;137248;1276;22611;-85
2023/08/20 13:08:30;;;;;;;5.40;4.90;;;;;;;33.49;38.14;99200.56;137306;1276;22174;-85
2023/08/20 13:11:33;;;;;;;6.40;5.50;;;;;;;33.76;35.95;99203.27;137238;1276;22230;-86
2023/08/20 13:14:35;;;;;;;6.50;5.90;;;;;;;33.74;35.16;99200.64;137241;1276;22218;-85
2023/08/20 13:17:38;;;;;;;6.30;5.80;;;;;;;33.46;35.66;99206.91;137160;1276;22620;-85
2023/08/20 13:20:40;;;;;;;6.30;5.80;;;;;;;33.17;36.87;99201.31;137290;1276;22490;-85
2023/08/20 13:23:44;;;;;;;;;;;;;;;32.98;37.13;99198.83;137263;1270;22491;-85
2023/08/20 13:26:46;;;;;;;9.20;5.60;;;;;;;32.79;37.67;99198.94;137274;1276;22658;-86
2023/08/20 13:29:51;;;;;;;9.80;6.30;;;;;;;32.97;37.98;99193.12;137283;1276;22618;-86
2023/08/20 13:32:53;;;;;;;7.90;6.20;;;;;;;33.13;38.30;99194.77;137305;1276;22639;-86
2023/08/20 13:35:57;;;;;;;6.40;5.80;;;;;;;33.28;37.61;99195.69;137079;1276;22378;-85
2023/08/20 13:38:59;;;;;;;6.50;5.60;;;;;;;33.35;37.17;99194.93;137255;1276;22192;-85
2023/08/20 13:42:02;;;;;;;6.60;6.00;;;;;;;33.50;37.17;99187.48;137191;1276;22498;-87
2023/08/20 13:45:04;;;;;;;6.70;6.10;;;;;;;33.56;37.02;99185.00;137198;1274;22161;-86
2023/08/20 13:48:07;;;;;;;6.80;6.20;;;;;;;33.62;37.29;99185.67;137157;1276;22207;-86
2023/08/20 13:51:10;;;;;;;7.70;6.70;;;;;;;33.61;36.47;99189.36;137216;1276;22568;-87
2023/08/20 13:54:14;;;;;;;7.00;6.20;;;;;;;33.48;36.63;99185.98;137006;1276;22697;-83
2023/08/20 13:57:17;;;;;;;7.80;6.10;;;;;;;33.50;36.68;99189.77;136982;1276;22360;-86
2023/08/20 14:00:19;;;;;;;8.20;6.20;;;;;;;33.51;36.75;99188.42;137284;1276;22694;-86